createdAt,value
2023-05-18T00:00:02.361Z,100.00
2023-05-18T00:02:31.420Z,100.00
2023-05-18T00:05:01.998Z,100.00
2023-05-18T00:07:30.117Z,100.00
2023-05-18T00:09:56.674Z,100.00
2023-05-18T00:12:23.218Z,100.00
2023-05-18T00:14:49.771Z,100.00
2023-05-18T00:17:16.522Z,100.00
2023-05-18T00:19:46.500Z,100.00
2023-05-18T00:22:18.119Z,100.00
2023-05-18T00:24:48.386Z,100.00
2023-05-18T00:27:15.084Z,100.00
2023-05-18T00:29:41.563Z,100.00
2023-05-18T00:32:08.113Z,100.00
2023-05-18T00:34:37.007Z,100.00
2023-05-18T00:37:03.636Z,100.00
2023-05-18T00:39:30.082Z,100.00
2023-05-18T00:41:56.710Z,100.00
2023-05-18T00:44:24.321Z,100.00
2023-05-18T00:46:50.890Z,100.00
2023-05-18T00:49:17.754Z,100.00
2023-05-18T00:51:45.332Z,100.00
2023-05-18T00:54:11.921Z,100.00
2023-05-18T00:56:41.875Z,100.00
2023-05-18T00:59:12.238Z,100.00
2023-05-18T01:01:43.740Z,100.00
2023-05-18T01:04:14.368Z,100.00
2023-05-18T01:06:42.574Z,100.00
2023-05-18T01:09:12.020Z,100.00
2023-05-18T01:12:03.621Z,100.00
2023-05-18T01:14:59.669Z,100.00
2023-05-18T01:17:34.949Z,100.00
2023-05-18T01:20:24.913Z,100.00
2023-05-18T01:23:29.660Z,100.00
2023-05-18T01:25:56.385Z,100.00
2023-05-18T01:28:27.998Z,100.00
2023-05-18T01:30:56.517Z,100.00
2023-05-18T01:33:24.638Z,100.00
2023-05-18T01:35:51.962Z,100.00
2023-05-18T01:38:22.403Z,100.00
2023-05-18T01:41:14.937Z,100.00
2023-05-18T01:43:52.186Z,100.00
2023-05-18T01:46:54.602Z,100.00
2023-05-18T01:49:30.434Z,100.00
2023-05-18T01:52:01.746Z,100.00
2023-05-18T01:54:32.217Z,100.00
2023-05-18T01:56:59.392Z,100.00
2023-05-18T01:59:26.145Z,100.00
2023-05-18T02:01:59.807Z,100.00
2023-05-18T02:04:27.863Z,100.00
2023-05-18T02:06:55.221Z,100.00
2023-05-18T02:09:22.498Z,100.00
2023-05-18T02:11:50.474Z,100.00
2023-05-18T02:14:17.090Z,100.00
2023-05-18T02:16:47.196Z,100.00
2023-05-18T02:19:14.914Z,100.00
2023-05-18T02:21:43.553Z,100.00
2023-05-18T02:24:10.251Z,100.00
2023-05-18T02:26:37.552Z,100.00
2023-05-18T02:29:09.329Z,100.00
2023-05-18T02:31:36.035Z,100.00
2023-05-18T02:34:02.728Z,100.00
2023-05-18T02:36:40.163Z,100.00
2023-05-18T02:39:07.769Z,100.00
2023-05-18T02:41:35.519Z,100.00
2023-05-18T02:44:03.361Z,100.00
2023-05-18T02:46:30.162Z,100.00
2023-05-18T02:48:57.078Z,100.00
2023-05-18T02:51:23.738Z,100.00
2023-05-18T02:53:51.201Z,100.00
2023-05-18T02:56:18.633Z,100.00
2023-05-18T02:58:58.445Z,100.00
2023-05-18T03:01:37.618Z,100.00
2023-05-18T03:04:04.322Z,100.00
2023-05-18T03:06:30.971Z,100.00
2023-05-18T03:08:58.773Z,100.00
2023-05-18T03:11:33.049Z,100.00
2023-05-18T03:13:59.653Z,100.00
2023-05-18T03:16:28.624Z,100.00
2023-05-18T03:18:55.811Z,100.00
2023-05-18T03:21:22.380Z,100.00
2023-05-18T03:23:49.213Z,100.00
2023-05-18T03:26:16.746Z,100.00
2023-05-18T03:28:43.280Z,100.00
2023-05-18T03:31:09.859Z,100.00
2023-05-18T03:33:36.459Z,100.00
2023-05-18T03:36:04.544Z,100.00
2023-05-18T03:38:31.897Z,100.00
2023-05-18T03:41:04.095Z,100.00
2023-05-18T03:43:32.392Z,100.00
2023-05-18T03:46:00.856Z,100.00
2023-05-18T03:48:27.646Z,100.00
2023-05-18T03:50:54.273Z,100.00
2023-05-18T03:53:21.496Z,100.00
2023-05-18T03:55:51.637Z,100.00
2023-05-18T03:58:21.119Z,100.00
2023-05-18T04:00:49.431Z,100.00
2023-05-18T04:03:16.445Z,100.00
2023-05-18T04:05:43.553Z,100.00
2023-05-18T04:08:14.399Z,100.00
2023-05-18T04:10:44.601Z,100.00
2023-05-18T04:13:12.307Z,100.00
2023-05-18T04:15:38.981Z,100.00
2023-05-18T04:18:05.800Z,100.00
2023-05-18T04:20:32.497Z,100.00
2023-05-18T04:23:00.672Z,100.00
2023-05-18T04:25:28.089Z,100.00
2023-05-18T04:27:55.949Z,100.00
2023-05-18T04:30:29.462Z,100.00
2023-05-18T04:32:58.176Z,100.00
2023-05-18T04:35:25.832Z,100.00
2023-05-18T04:37:52.522Z,100.00
2023-05-18T04:40:20.405Z,100.00
2023-05-18T04:42:48.845Z,100.00
2023-05-18T04:45:26.035Z,100.00
2023-05-18T04:47:54.619Z,100.00
2023-05-18T04:50:25.981Z,100.00
2023-05-18T04:52:53.148Z,100.00
2023-05-18T04:55:27.970Z,100.00
2023-05-18T04:57:57.995Z,100.00
2023-05-18T05:00:26.083Z,100.00
2023-05-18T05:02:53.511Z,100.00
2023-05-18T05:05:20.919Z,100.00
2023-05-18T05:07:48.926Z,100.00
2023-05-18T05:10:15.537Z,100.00
2023-05-18T05:12:42.474Z,100.00
2023-05-18T05:15:10.045Z,100.00
2023-05-18T05:17:37.607Z,100.00
2023-05-18T05:20:08.180Z,100.00
2023-05-18T05:22:35.170Z,100.00
2023-05-18T05:25:05.881Z,100.00
2023-05-18T05:27:33.151Z,100.00
2023-05-18T05:29:59.982Z,100.00
2023-05-18T05:32:26.626Z,100.00
2023-05-18T05:34:53.238Z,100.00
2023-05-18T05:37:21.142Z,100.00
2023-05-18T05:39:48.641Z,100.00
2023-05-18T05:42:17.135Z,100.00
2023-05-18T05:44:43.757Z,100.00
2023-05-18T05:47:10.435Z,99.95
2023-05-18T05:49:37.010Z,98.16
2023-05-18T05:52:04.275Z,96.14
2023-05-18T05:54:31.214Z,95.70
2023-05-18T05:56:57.867Z,95.81
2023-05-18T05:59:24.534Z,92.96
2023-05-18T06:01:51.563Z,92.00
2023-05-18T06:04:18.448Z,90.86
2023-05-18T06:06:47.749Z,90.78
2023-05-18T06:09:14.728Z,89.34
2023-05-18T06:11:41.988Z,88.80
2023-05-18T06:14:08.560Z,88.77
2023-05-18T06:16:36.070Z,88.63
2023-05-18T06:19:02.900Z,88.61
2023-05-18T06:21:30.093Z,87.32
2023-05-18T06:23:58.083Z,87.09
2023-05-18T06:26:59.759Z,88.50
2023-05-18T06:29:37.897Z,88.55
2023-05-18T06:32:13.465Z,88.12
2023-05-18T06:34:45.705Z,87.69
2023-05-18T06:37:12.477Z,85.89
2023-05-18T06:39:40.110Z,86.45
2023-05-18T06:42:07.297Z,84.67
2023-05-18T06:44:35.760Z,85.45
2023-05-18T06:47:09.357Z,84.77
2023-05-18T06:49:36.021Z,84.31
2023-05-18T06:52:03.316Z,81.34
2023-05-18T06:54:30.681Z,82.37
2023-05-18T06:56:57.316Z,81.10
2023-05-18T06:59:24.372Z,81.37
2023-05-18T07:01:51.206Z,83.04
2023-05-18T07:04:19.374Z,83.07
2023-05-18T07:06:46.479Z,80.37
2023-05-18T07:09:12.990Z,81.98
2023-05-18T07:11:40.421Z,81.59
2023-05-18T07:14:07.027Z,79.18
2023-05-18T07:16:33.911Z,80.56
2023-05-18T07:19:00.515Z,79.06
2023-05-18T07:21:27.114Z,80.40
2023-05-18T07:23:53.666Z,78.17
2023-05-18T07:26:20.359Z,78.91
2023-05-18T07:28:47.768Z,79.21
2023-05-18T07:31:16.333Z,79.10
2023-05-18T07:33:44.625Z,77.97
2023-05-18T07:36:11.182Z,77.48
2023-05-18T07:38:37.711Z,76.42
2023-05-18T07:41:04.278Z,77.29
2023-05-18T07:43:30.912Z,75.81
2023-05-18T07:45:57.678Z,75.60
2023-05-18T07:48:24.186Z,75.01
2023-05-18T07:50:50.678Z,74.21
2023-05-18T07:53:17.254Z,73.13
2023-05-18T07:55:43.798Z,74.71
2023-05-18T07:58:10.545Z,74.85
2023-05-18T08:00:37.433Z,73.10
2023-05-18T08:03:04.431Z,73.09
2023-05-18T08:05:31.375Z,72.05
2023-05-18T08:07:58.103Z,72.20
2023-05-18T08:10:24.978Z,71.41
2023-05-18T08:12:52.860Z,70.81
2023-05-18T08:15:19.466Z,69.86
2023-05-18T08:17:47.318Z,71.85
2023-05-18T08:20:13.969Z,69.48
2023-05-18T08:22:40.428Z,69.83
2023-05-18T08:25:07.350Z,70.42
2023-05-18T08:27:33.837Z,69.25
2023-05-18T08:30:00.572Z,69.75
2023-05-18T08:32:27.722Z,67.94
2023-05-18T08:34:54.327Z,67.90
2023-05-18T08:37:22.108Z,67.10
2023-05-18T08:39:48.751Z,66.95
2023-05-18T08:43:02.750Z,63.64
2023-05-18T08:45:48.014Z,64.33
2023-05-18T08:48:16.427Z,63.84
2023-05-18T08:50:44.324Z,62.04
2023-05-18T08:53:12.137Z,63.08
2023-05-18T08:55:41.618Z,63.18
2023-05-18T08:58:09.320Z,61.56
2023-05-18T09:00:36.140Z,62.25
2023-05-18T09:03:05.247Z,60.38
2023-05-18T09:05:32.206Z,60.79
2023-05-18T09:07:59.515Z,59.50
2023-05-18T09:10:26.310Z,58.98
2023-05-18T09:12:56.038Z,59.25
2023-05-18T09:15:25.164Z,58.09
2023-05-18T09:17:52.115Z,58.43
2023-05-18T09:20:20.567Z,57.18
2023-05-18T09:22:49.631Z,56.81
2023-05-18T09:25:17.729Z,56.84
2023-05-18T09:27:44.346Z,55.81
2023-05-18T09:30:11.827Z,54.56
2023-05-18T09:32:38.696Z,55.36
2023-05-18T09:35:06.790Z,54.66
2023-05-18T09:37:33.858Z,54.01
2023-05-18T09:40:02.013Z,54.81
2023-05-18T09:42:39.671Z,55.61
2023-05-18T09:45:28.803Z,54.28
2023-05-18T09:47:55.577Z,54.25
2023-05-18T09:50:23.002Z,53.69
2023-05-18T09:52:50.242Z,53.23
2023-05-18T09:55:18.454Z,53.23
2023-05-18T09:57:46.790Z,53.46
2023-05-18T10:00:15.653Z,52.29
2023-05-18T10:02:48.226Z,51.83
2023-05-18T10:05:31.433Z,51.35
2023-05-18T10:07:59.373Z,50.55
2023-05-18T10:10:27.788Z,50.29
2023-05-18T10:12:57.515Z,49.56
2023-05-18T10:15:24.894Z,49.85
2023-05-18T10:20:29.899Z,48.99
2023-05-18T10:23:00.710Z,50.06
2023-05-18T10:25:27.390Z,47.77
2023-05-18T10:28:00.785Z,49.22
2023-05-18T10:30:27.381Z,49.93
2023-05-18T10:32:56.882Z,49.15
2023-05-18T10:35:26.075Z,48.55
2023-05-18T10:37:55.066Z,47.53
2023-05-18T10:40:23.928Z,48.26
2023-05-18T10:42:52.432Z,47.54
2023-05-18T10:45:19.528Z,46.91
2023-05-18T10:47:48.099Z,46.90
2023-05-18T10:50:16.544Z,45.74
2023-05-18T10:52:45.767Z,45.67
2023-05-18T10:55:12.937Z,44.53
2023-05-18T10:57:44.775Z,45.53
2023-05-18T11:00:12.380Z,45.96
2023-05-18T11:02:42.709Z,46.60
2023-05-18T11:05:11.251Z,45.83
2023-05-18T11:07:38.958Z,46.39
2023-05-18T11:10:13.966Z,46.05
2023-05-18T11:12:40.955Z,45.34
2023-05-18T11:15:08.228Z,44.96
2023-05-18T11:17:34.941Z,45.50
2023-05-18T11:20:05.321Z,44.66
2023-05-18T11:22:59.311Z,44.08
2023-05-18T11:25:25.831Z,44.77
2023-05-18T11:27:53.870Z,43.74
2023-05-18T11:30:27.243Z,43.87
2023-05-18T11:33:08.470Z,43.71
2023-05-18T11:36:11.449Z,42.93
2023-05-18T11:38:55.703Z,42.93
2023-05-18T11:41:36.201Z,42.34
2023-05-18T11:44:11.940Z,42.91
2023-05-18T11:46:50.751Z,42.25
2023-05-18T11:49:19.888Z,41.36
2023-05-18T11:52:14.484Z,41.49
2023-05-18T11:54:49.489Z,42.05
2023-05-18T11:57:18.694Z,41.26
2023-05-18T11:59:47.472Z,40.99
2023-05-18T12:02:20.640Z,40.57
2023-05-18T12:05:00.058Z,39.68
2023-05-18T12:07:28.436Z,40.35
2023-05-18T12:10:11.911Z,40.38
2023-05-18T12:12:39.799Z,40.56
2023-05-18T12:15:08.686Z,41.31
2023-05-18T12:17:42.813Z,40.08
2023-05-18T12:20:14.518Z,39.03
2023-05-18T12:22:52.581Z,39.01
2023-05-18T12:25:21.575Z,39.66
2023-05-18T12:27:48.687Z,40.21
2023-05-18T12:30:15.175Z,40.13
2023-05-18T12:32:46.730Z,39.53
2023-05-18T12:35:13.366Z,39.33
2023-05-18T12:37:45.567Z,39.99
2023-05-18T12:40:18.871Z,37.96
2023-05-18T12:42:56.628Z,36.28
2023-05-18T12:45:25.827Z,37.41
2023-05-18T12:47:54.674Z,37.17
2023-05-18T12:50:23.476Z,37.94
2023-05-18T12:52:50.574Z,38.81
2023-05-18T12:55:25.001Z,37.69
2023-05-18T12:58:03.496Z,37.52
2023-05-18T13:00:37.640Z,37.57
2023-05-18T13:03:08.809Z,36.89
2023-05-18T13:05:36.827Z,37.89
2023-05-18T13:08:03.478Z,36.68
2023-05-18T13:10:33.055Z,37.80
2023-05-18T13:13:03.766Z,36.83
2023-05-18T13:15:35.705Z,36.73
2023-05-18T13:18:10.148Z,36.45
2023-05-18T13:20:42.520Z,36.46
2023-05-18T13:23:11.848Z,36.69
2023-05-18T13:25:39.477Z,37.41
2023-05-18T13:28:07.091Z,37.74
2023-05-18T13:30:33.782Z,38.39
2023-05-18T13:33:01.031Z,36.85
2023-05-18T13:35:28.206Z,36.18
2023-05-18T13:37:54.915Z,36.20
2023-05-18T13:40:23.957Z,37.14
2023-05-18T13:42:50.467Z,37.82
2023-05-18T13:45:17.425Z,37.92
2023-05-18T13:47:47.785Z,37.04
2023-05-18T13:50:14.486Z,36.18
2023-05-18T13:52:41.035Z,36.54
2023-05-18T13:55:09.995Z,37.31
2023-05-18T13:57:37.342Z,35.22
2023-05-18T14:00:22.447Z,36.17
2023-05-18T14:02:49.140Z,37.21
2023-05-18T14:05:16.252Z,37.01
2023-05-18T14:07:44.055Z,37.27
2023-05-18T14:10:12.304Z,38.16
2023-05-18T14:12:42.241Z,38.18
2023-05-18T14:15:09.421Z,37.46
2023-05-18T14:17:36.160Z,38.09
2023-05-18T14:20:04.966Z,37.26
2023-05-18T14:22:31.958Z,34.87
2023-05-18T14:24:58.450Z,33.35
2023-05-18T14:27:24.947Z,33.45
2023-05-18T14:29:51.383Z,36.60
2023-05-18T14:32:20.706Z,36.14
2023-05-18T14:34:51.539Z,34.87
2023-05-18T14:37:19.018Z,34.74
2023-05-18T14:39:45.745Z,33.80
2023-05-18T14:42:12.331Z,32.40
2023-05-18T14:44:38.834Z,33.57
2023-05-18T14:47:05.708Z,35.52
2023-05-18T14:49:32.278Z,37.10
2023-05-18T14:51:58.890Z,38.31
2023-05-18T14:54:25.698Z,38.22
2023-05-18T14:56:52.357Z,36.50
2023-05-18T14:59:18.907Z,34.99
2023-05-18T15:01:45.404Z,33.66
2023-05-18T15:04:12.122Z,34.56
2023-05-18T15:06:38.700Z,34.81
2023-05-18T15:09:06.320Z,36.09
2023-05-18T15:11:32.967Z,36.24
2023-05-18T15:13:59.608Z,35.38
2023-05-18T15:16:27.022Z,36.02
2023-05-18T15:18:53.604Z,35.51
2023-05-18T15:21:20.072Z,34.67
2023-05-18T15:23:46.599Z,34.33
2023-05-18T15:26:13.323Z,35.07
2023-05-18T15:28:41.121Z,34.95
2023-05-18T15:31:09.170Z,36.02
2023-05-18T15:33:36.925Z,36.45
2023-05-18T15:36:03.803Z,36.86
2023-05-18T15:38:30.392Z,37.52
2023-05-18T15:40:56.957Z,38.27
2023-05-18T15:43:24.006Z,38.85
2023-05-18T15:45:50.709Z,38.93
2023-05-18T15:48:17.406Z,39.24
2023-05-18T15:50:43.887Z,39.37
2023-05-18T15:53:10.476Z,38.90
2023-05-18T15:55:37.138Z,38.88
2023-05-18T15:58:03.899Z,39.33
2023-05-18T16:00:32.385Z,38.75
2023-05-18T16:02:59.313Z,39.03
2023-05-18T16:05:25.878Z,39.54
2023-05-18T16:07:52.323Z,39.81
2023-05-18T16:10:18.845Z,40.82
2023-05-18T16:12:45.529Z,40.61
2023-05-18T16:15:12.039Z,40.46
2023-05-18T16:17:38.690Z,40.45
2023-05-18T16:20:05.830Z,39.79
2023-05-18T16:22:32.348Z,39.77
2023-05-18T16:24:58.943Z,39.95
2023-05-18T16:27:25.638Z,39.94
2023-05-18T16:29:52.230Z,40.11
2023-05-18T16:32:18.830Z,40.82
2023-05-18T16:34:45.354Z,40.93
2023-05-18T16:37:12.123Z,40.52
2023-05-18T16:39:38.638Z,40.89
2023-05-18T16:42:05.405Z,40.67
2023-05-18T16:44:32.836Z,40.77
2023-05-18T16:46:59.510Z,41.17
2023-05-18T16:49:26.142Z,41.44
2023-05-18T16:51:52.925Z,41.57
2023-05-18T16:54:19.411Z,40.97
2023-05-18T16:56:45.968Z,41.00
2023-05-18T16:59:12.453Z,41.31
2023-05-18T17:01:38.967Z,41.21
2023-05-18T17:04:05.771Z,41.69
2023-05-18T17:06:32.350Z,41.67
2023-05-18T17:08:58.962Z,41.46
2023-05-18T17:11:26.851Z,41.95
2023-05-18T17:13:54.370Z,41.89
2023-05-18T17:16:22.213Z,42.47
2023-05-18T17:18:49.315Z,42.34
2023-05-18T17:21:16.470Z,42.75
2023-05-18T17:23:43.030Z,43.28
2023-05-18T17:26:09.582Z,42.74
2023-05-18T17:28:36.135Z,43.23
2023-05-18T17:31:03.075Z,43.64
2023-05-18T17:33:29.568Z,43.61
2023-05-18T17:35:56.102Z,43.71
2023-05-18T17:38:22.652Z,43.55
2023-05-18T17:40:49.229Z,43.08
2023-05-18T17:43:15.798Z,43.25
2023-05-18T17:45:42.321Z,43.65
2023-05-18T17:48:09.017Z,43.94
2023-05-18T17:50:37.788Z,43.78
2023-05-18T17:53:04.939Z,44.01
2023-05-18T17:55:31.910Z,44.16
2023-05-18T17:58:01.016Z,44.04
2023-05-18T18:00:27.864Z,44.68
2023-05-18T18:02:55.187Z,43.56
2023-05-18T18:05:22.048Z,42.68
2023-05-18T18:07:48.562Z,43.20
2023-05-18T18:10:15.187Z,43.14
2023-05-18T18:12:41.840Z,43.80
2023-05-18T18:15:08.807Z,43.97
2023-05-18T18:17:35.394Z,43.98
2023-05-18T18:20:02.251Z,43.73
2023-05-18T18:22:28.806Z,44.06
2023-05-18T18:24:55.272Z,43.80
2023-05-18T18:27:21.857Z,43.63
2023-05-18T18:29:49.115Z,43.93
2023-05-18T18:32:15.629Z,44.00
2023-05-18T18:34:42.164Z,44.27
2023-05-18T18:37:08.665Z,44.38
2023-05-18T18:39:35.326Z,44.11
2023-05-18T18:42:01.956Z,44.42
2023-05-18T18:44:28.477Z,44.55
2023-05-18T18:46:55.050Z,44.16
2023-05-18T18:49:21.611Z,44.00
2023-05-18T18:51:48.215Z,44.71
2023-05-18T18:54:14.815Z,45.20
2023-05-18T18:56:43.894Z,44.41
2023-05-18T18:59:10.542Z,45.09
2023-05-18T19:01:37.180Z,45.25
2023-05-18T19:04:04.406Z,45.07
2023-05-18T19:06:31.975Z,45.69
2023-05-18T19:08:58.466Z,46.02
2023-05-18T19:11:24.994Z,45.91
2023-05-18T19:13:51.658Z,45.68
2023-05-18T19:16:18.532Z,45.85
2023-05-18T19:18:45.355Z,45.94
2023-05-18T19:21:12.063Z,46.24
2023-05-18T19:23:38.580Z,46.37
2023-05-18T19:26:05.407Z,46.58
2023-05-18T19:28:31.956Z,46.04
2023-05-18T19:30:58.421Z,46.78
2023-05-18T19:33:24.950Z,46.93
2023-05-18T19:35:52.841Z,47.17
2023-05-18T19:38:19.456Z,47.04
2023-05-18T19:40:46.082Z,46.99
2023-05-18T19:43:12.603Z,47.34
2023-05-18T19:45:39.606Z,47.08
2023-05-18T19:48:06.302Z,47.39
2023-05-18T19:50:32.850Z,47.21
2023-05-18T19:52:59.410Z,47.95
2023-05-18T19:55:26.023Z,47.97
2023-05-18T19:57:52.541Z,48.33
2023-05-18T20:00:19.222Z,48.46
2023-05-18T20:02:45.866Z,49.31
2023-05-18T20:05:13.108Z,49.26
2023-05-18T20:07:39.701Z,49.42
2023-05-18T20:10:06.669Z,49.37
2023-05-18T20:12:33.270Z,49.46
2023-05-18T20:14:59.881Z,49.75
2023-05-18T20:17:26.557Z,52.83
2023-05-18T20:19:53.424Z,55.30
2023-05-18T20:22:20.495Z,58.56
2023-05-18T20:24:47.020Z,60.06
2023-05-18T20:27:14.600Z,60.12
2023-05-18T20:29:41.617Z,62.13
2023-05-18T20:32:08.171Z,64.23
2023-05-18T20:34:34.846Z,67.42
2023-05-18T20:37:02.418Z,68.72
2023-05-18T20:39:29.102Z,71.40
2023-05-18T20:41:57.651Z,72.74
2023-05-18T20:44:24.945Z,73.40
2023-05-18T20:46:53.033Z,73.69
2023-05-18T20:49:21.640Z,75.06
2023-05-18T20:51:49.430Z,76.05
2023-05-18T20:54:17.837Z,76.50
2023-05-18T20:56:44.576Z,78.11
2023-05-18T20:59:12.491Z,80.82
2023-05-18T21:01:40.041Z,81.47
2023-05-18T21:04:07.044Z,81.97
2023-05-18T21:06:34.450Z,82.08
2023-05-18T21:09:01.387Z,81.91
2023-05-18T21:11:28.047Z,81.93
2023-05-18T21:13:54.466Z,81.89
2023-05-18T21:16:21.085Z,82.46
2023-05-18T21:18:47.714Z,83.71
2023-05-18T21:21:14.093Z,84.04
2023-05-18T21:23:40.482Z,83.88
2023-05-18T21:26:06.957Z,85.11
2023-05-18T21:28:33.367Z,85.71
2023-05-18T21:30:59.822Z,84.80
2023-05-18T21:33:26.388Z,86.86
2023-05-18T21:35:52.930Z,86.39
2023-05-18T21:38:19.404Z,85.47
2023-05-18T21:40:46.763Z,85.73
2023-05-18T21:43:13.339Z,86.81
2023-05-18T21:45:40.310Z,87.46
2023-05-18T21:48:07.065Z,88.57
2023-05-18T21:50:36.264Z,88.93
2023-05-18T21:53:03.335Z,89.15
2023-05-18T21:55:33.270Z,88.71
2023-05-18T21:57:59.997Z,88.94
2023-05-18T22:00:26.955Z,89.39
2023-05-18T22:02:53.531Z,89.08
2023-05-18T22:05:20.466Z,90.67
2023-05-18T22:07:46.956Z,91.32
2023-05-18T22:10:13.502Z,91.54
2023-05-18T22:12:41.073Z,92.16
2023-05-18T22:15:08.646Z,91.87
2023-05-18T22:17:36.530Z,90.98
2023-05-18T22:20:06.433Z,90.53
2023-05-18T22:22:33.069Z,89.32
2023-05-18T22:24:59.613Z,89.79
2023-05-18T22:27:26.444Z,90.68
2023-05-18T22:29:52.935Z,90.11
2023-05-18T22:32:19.589Z,89.82
2023-05-18T22:34:46.277Z,90.32
2023-05-18T22:37:12.971Z,90.33
2023-05-18T22:39:39.491Z,90.18
2023-05-18T22:42:06.228Z,89.65
2023-05-18T22:44:32.734Z,90.57
2023-05-18T22:47:00.168Z,89.83
2023-05-18T22:49:26.663Z,89.67
2023-05-18T22:51:53.198Z,90.10
2023-05-18T22:54:19.918Z,90.02
2023-05-18T22:56:46.478Z,89.68
2023-05-18T22:59:13.252Z,90.22
2023-05-18T23:01:39.792Z,90.92
2023-05-18T23:04:06.488Z,91.23
2023-05-18T23:06:33.201Z,91.41
2023-05-18T23:09:00.457Z,90.98
2023-05-18T23:11:28.384Z,91.57
2023-05-18T23:13:55.183Z,92.66
2023-05-18T23:16:23.854Z,93.76
2023-05-18T23:18:53.615Z,94.09
2023-05-18T23:21:21.643Z,94.94
2023-05-18T23:23:48.234Z,94.61
2023-05-18T23:26:14.813Z,95.04
2023-05-18T23:28:41.286Z,95.56
2023-05-18T23:31:07.788Z,96.68
2023-05-18T23:33:34.524Z,98.49
2023-05-18T23:36:02.623Z,97.76
2023-05-18T23:38:34.992Z,98.23
2023-05-18T23:41:05.414Z,97.70
2023-05-18T23:43:32.204Z,98.48
2023-05-18T23:46:00.017Z,96.98
2023-05-18T23:48:27.527Z,98.79
2023-05-18T23:51:01.234Z,98.04
2023-05-18T23:53:31.225Z,96.86
2023-05-18T23:55:59.467Z,95.85
2023-05-18T23:58:30.492Z,96.38
